createdAt,value
2018-03-03T00:01:06.627Z,36.63
2018-03-03T00:03:36.543Z,37.27
2018-03-03T00:06:06.412Z,38.17
2018-03-03T00:08:36.326Z,35.20
2018-03-03T00:11:06.301Z,34.07
2018-03-03T00:13:36.164Z,39.00
2018-03-03T00:16:06.069Z,45.33
2018-03-03T00:18:35.949Z,38.87
2018-03-03T00:21:05.840Z,38.47
2018-03-03T00:23:35.814Z,36.13
2018-03-03T00:26:05.706Z,36.47
2018-03-03T00:28:35.576Z,32.20
2018-03-03T00:31:05.503Z,37.47
2018-03-03T00:33:35.370Z,36.33
2018-03-03T00:36:05.246Z,35.50
2018-03-03T00:38:35.132Z,39.17
2018-03-03T00:41:04.990Z,36.17
2018-03-03T00:43:34.904Z,35.90
2018-03-03T00:46:04.773Z,35.77
2018-03-03T00:48:34.664Z,46.07
2018-03-03T00:51:04.528Z,36.33
2018-03-03T00:53:34.422Z,32.40
2018-03-03T00:56:04.296Z,34.80
2018-03-03T00:58:34.148Z,33.13
2018-03-03T01:01:04.049Z,30.30
2018-03-03T01:03:33.904Z,35.90
2018-03-03T01:06:03.789Z,35.43
2018-03-03T01:08:33.641Z,36.23
2018-03-03T01:11:03.519Z,38.60
2018-03-03T01:13:33.404Z,34.50
2018-03-03T01:16:03.272Z,43.50
2018-03-03T01:18:33.250Z,34.73
2018-03-03T01:21:03.139Z,36.43
2018-03-03T01:23:32.992Z,35.40
2018-03-03T01:26:02.871Z,35.90
2018-03-03T01:28:32.739Z,38.57
2018-03-03T01:31:02.631Z,36.53
2018-03-03T01:33:32.491Z,36.30
2018-03-03T01:36:02.368Z,38.20
2018-03-03T01:38:32.229Z,37.47
2018-03-03T01:41:02.128Z,38.13
2018-03-03T01:43:31.980Z,37.60
2018-03-03T01:46:01.879Z,39.23
2018-03-03T01:48:31.782Z,38.47
2018-03-03T01:51:01.647Z,36.97
2018-03-03T01:53:31.516Z,34.47
2018-03-03T01:56:01.382Z,35.10
2018-03-03T01:58:31.252Z,38.23
2018-03-03T02:01:01.153Z,33.53
2018-03-03T02:03:31.011Z,34.50
2018-03-03T02:06:00.918Z,38.37
2018-03-03T02:08:30.760Z,40.27
2018-03-03T02:11:00.651Z,35.20
2018-03-03T02:13:30.555Z,36.73
2018-03-03T02:16:00.451Z,35.70
2018-03-03T02:18:30.328Z,37.63
2018-03-03T02:21:00.204Z,35.67
2018-03-03T02:23:30.075Z,33.87
2018-03-03T02:25:59.966Z,43.37
2018-03-03T02:28:29.820Z,35.70
2018-03-03T02:30:59.724Z,37.67
2018-03-03T02:33:29.605Z,41.77
2018-03-03T02:35:59.488Z,38.97
2018-03-03T02:38:29.351Z,43.37
2018-03-03T02:40:59.274Z,39.13
2018-03-03T02:43:29.402Z,39.13
2018-03-03T02:45:59.282Z,35.80
2018-03-03T02:48:29.133Z,31.90
2018-03-03T02:50:59.041Z,34.10
2018-03-03T02:53:28.896Z,31.10
2018-03-03T02:55:58.803Z,37.43
2018-03-03T02:58:28.681Z,45.40
2018-03-03T03:00:58.543Z,34.40
2018-03-03T03:03:28.420Z,41.07
2018-03-03T03:05:58.281Z,34.83
2018-03-03T03:08:28.165Z,37.37
2018-03-03T03:10:58.036Z,34.10
2018-03-03T03:13:27.904Z,37.10
2018-03-03T03:15:57.779Z,34.67
2018-03-03T03:18:27.623Z,34.70
2018-03-03T03:20:57.504Z,37.63
2018-03-03T03:23:27.356Z,35.27
2018-03-03T03:25:57.232Z,35.60
2018-03-03T03:28:27.079Z,44.37
2018-03-03T03:30:57.261Z,41.90
2018-03-03T03:33:27.133Z,35.33
2018-03-03T03:35:56.995Z,41.57
2018-03-03T03:38:26.880Z,35.43
2018-03-03T03:40:56.731Z,45.17
2018-03-03T03:43:26.640Z,33.50
2018-03-03T03:45:56.508Z,37.80
2018-03-03T03:48:26.398Z,40.03
2018-03-03T03:50:56.277Z,35.73
2018-03-03T03:53:26.483Z,36.50
2018-03-03T03:55:56.369Z,35.33
2018-03-03T03:58:26.236Z,44.80
2018-03-03T04:00:56.128Z,40.10
2018-03-03T04:03:25.996Z,37.60
2018-03-03T04:05:55.895Z,35.33
2018-03-03T04:08:25.748Z,39.83
2018-03-03T04:10:55.631Z,35.60
2018-03-03T04:13:25.507Z,39.07
2018-03-03T04:15:55.392Z,34.47
2018-03-03T04:18:25.283Z,42.27
2018-03-03T04:20:55.153Z,36.50
2018-03-03T04:23:25.027Z,34.20
2018-03-03T04:25:54.975Z,37.47
2018-03-03T04:28:24.867Z,34.30
2018-03-03T04:30:54.734Z,39.23
2018-03-03T04:33:24.620Z,37.33
2018-03-03T04:35:54.495Z,39.13
2018-03-03T04:38:24.481Z,34.83
2018-03-03T04:40:54.335Z,37.40
2018-03-03T04:43:24.214Z,41.20
2018-03-03T04:45:54.084Z,43.70
2018-03-03T04:48:24.294Z,37.23
2018-03-03T04:50:54.156Z,47.07
2018-03-03T04:53:24.040Z,42.50
2018-03-03T04:55:53.955Z,36.33
2018-03-03T04:58:29.482Z,46.90
2018-03-03T05:00:59.940Z,39.73
2018-03-03T05:03:44.699Z,45.23
2018-03-03T05:06:20.481Z,37.03
2018-03-03T05:08:50.330Z,38.93
2018-03-03T05:11:20.212Z,38.50
2018-03-03T05:13:55.116Z,42.83
2018-03-03T05:16:39.879Z,39.20
2018-03-03T05:19:25.486Z,42.77
2018-03-03T05:21:58.266Z,42.40
2018-03-03T05:24:43.009Z,39.53
2018-03-03T05:27:18.789Z,40.17
2018-03-03T05:30:07.508Z,44.00
2018-03-03T05:32:57.246Z,38.47
2018-03-03T05:35:32.960Z,41.17
2018-03-03T05:38:08.585Z,37.60
2018-03-03T05:40:44.279Z,43.90
2018-03-03T05:43:19.850Z,40.97
2018-03-03T05:46:10.472Z,43.13
2018-03-03T05:48:46.179Z,37.40
2018-03-03T05:51:21.924Z,44.47
2018-03-03T05:53:53.844Z,40.27
2018-03-03T05:56:38.404Z,45.67
2018-03-03T05:59:27.911Z,37.37
2018-03-03T06:02:03.556Z,45.60
2018-03-03T06:04:36.108Z,42.70
2018-03-03T06:07:09.836Z,43.07
2018-03-03T06:09:40.391Z,44.10
2018-03-03T06:12:10.320Z,43.93
2018-03-03T06:14:40.264Z,42.80
2018-03-03T06:17:10.174Z,37.47
2018-03-03T06:19:40.060Z,43.00
2018-03-03T06:22:10.372Z,46.57
2018-03-03T06:24:40.399Z,40.30
2018-03-03T06:27:10.300Z,43.70
2018-03-03T06:29:40.323Z,44.90
2018-03-03T06:32:10.205Z,43.40
2018-03-03T06:34:40.164Z,43.60
2018-03-03T06:37:10.040Z,41.80
2018-03-03T06:39:39.949Z,41.87
2018-03-03T06:42:09.842Z,43.90
2018-03-03T06:44:39.723Z,51.10
2018-03-03T06:47:09.661Z,48.33
2018-03-03T06:49:39.525Z,43.00
2018-03-03T06:52:09.400Z,41.23
2018-03-03T06:54:39.268Z,42.27
2018-03-03T06:57:09.185Z,41.03
2018-03-03T06:59:39.029Z,43.27
2018-03-03T07:02:08.932Z,48.93
2018-03-03T07:04:38.800Z,43.27
2018-03-03T07:07:08.684Z,42.10
2018-03-03T07:09:38.583Z,46.23
2018-03-03T07:12:08.432Z,47.37
2018-03-03T07:14:55.036Z,38.63
2018-03-03T07:17:24.891Z,48.33
2018-03-03T07:19:54.770Z,48.43
2018-03-03T07:22:25.098Z,48.37
2018-03-03T07:24:54.931Z,44.67
2018-03-03T07:27:24.836Z,54.57
2018-03-03T07:29:54.747Z,48.77
2018-03-03T07:32:24.619Z,42.20
2018-03-03T07:34:54.499Z,43.87
2018-03-03T07:37:24.388Z,45.50
2018-03-03T07:39:52.612Z,42.30
2018-03-03T07:42:21.741Z,46.43
2018-03-03T07:44:50.117Z,44.03
2018-03-03T07:47:18.457Z,46.93
2018-03-03T07:49:46.804Z,50.30
2018-03-03T07:52:15.173Z,44.50
2018-03-03T07:54:43.501Z,44.23
2018-03-03T07:57:13.215Z,49.17
2018-03-03T07:59:41.640Z,52.43
2018-03-03T08:02:09.996Z,50.20
2018-03-03T08:04:39.168Z,54.97
2018-03-03T08:07:07.581Z,48.37
2018-03-03T08:09:35.948Z,46.33
2018-03-03T08:12:04.301Z,48.97
2018-03-03T08:14:33.436Z,48.70
2018-03-03T08:17:01.807Z,52.03
2018-03-03T08:19:30.165Z,45.10
2018-03-03T08:21:58.548Z,54.23
2018-03-03T08:24:26.989Z,50.27
2018-03-03T08:26:56.064Z,47.53
2018-03-03T08:29:24.404Z,47.23
2018-03-03T08:31:52.764Z,51.73
2018-03-03T08:34:21.868Z,47.83
2018-03-03T08:36:50.196Z,54.97
2018-03-03T08:39:18.833Z,46.43
2018-03-03T08:41:47.228Z,55.43
2018-03-03T08:44:15.545Z,46.80
2018-03-03T08:46:44.769Z,50.93
2018-03-03T08:49:13.875Z,53.77
2018-03-03T08:51:42.212Z,53.60
2018-03-03T08:54:10.577Z,47.43
2018-03-03T08:56:38.998Z,51.37
2018-03-03T08:59:08.168Z,46.70
2018-03-03T09:01:36.520Z,50.37
2018-03-03T09:04:04.876Z,50.07
2018-03-03T09:06:33.206Z,49.83
2018-03-03T09:09:01.741Z,48.20
2018-03-03T09:11:30.068Z,49.13
2018-03-03T09:13:58.429Z,48.13
2018-03-03T09:16:26.797Z,48.33
2018-03-03T09:18:55.263Z,51.50
2018-03-03T09:21:23.601Z,50.27
2018-03-03T09:23:52.749Z,49.87
2018-03-03T09:26:21.100Z,49.07
2018-03-03T09:28:49.467Z,59.93
2018-03-03T09:31:18.593Z,50.23
2018-03-03T09:33:47.024Z,50.37
2018-03-03T09:36:16.138Z,52.53
2018-03-03T09:38:44.821Z,50.70
2018-03-03T09:41:13.149Z,52.80
2018-03-03T09:43:41.508Z,49.93
2018-03-03T09:46:09.878Z,59.83
2018-03-03T09:48:38.236Z,57.10
2018-03-03T09:51:06.597Z,59.93
2018-03-03T09:53:35.026Z,45.83
2018-03-03T09:56:03.361Z,54.20
2018-03-03T09:58:33.328Z,57.40
2018-03-03T10:01:03.234Z,54.13
2018-03-03T10:03:33.190Z,48.93
2018-03-03T10:06:03.068Z,53.27
2018-03-03T10:08:32.956Z,52.87
2018-03-03T10:11:02.810Z,49.97
2018-03-03T10:13:32.740Z,63.77
2018-03-03T10:16:02.625Z,48.60
2018-03-03T10:18:32.499Z,47.87
2018-03-03T10:21:02.380Z,49.37
2018-03-03T10:23:32.267Z,53.47
2018-03-03T10:26:02.197Z,47.67
2018-03-03T10:28:32.070Z,47.43
2018-03-03T10:31:01.925Z,43.57
2018-03-03T10:33:31.820Z,50.40
2018-03-03T10:36:01.688Z,53.87
2018-03-03T10:38:31.684Z,49.50
2018-03-03T10:41:01.532Z,52.00
2018-03-03T10:43:31.412Z,50.47
2018-03-03T10:46:01.273Z,52.20
2018-03-03T10:48:31.156Z,59.20
2018-03-03T10:51:01.036Z,48.17
2018-03-03T10:53:30.952Z,55.13
2018-03-03T10:56:00.816Z,53.27
2018-03-03T10:58:30.742Z,48.57
2018-03-03T11:01:00.603Z,55.47
2018-03-03T11:03:30.513Z,54.00
2018-03-03T11:06:01.241Z,52.33
2018-03-03T11:08:31.160Z,53.83
2018-03-03T11:11:01.024Z,53.07
2018-03-03T11:13:30.899Z,55.17
2018-03-03T11:16:00.799Z,56.10
2018-03-03T11:18:30.664Z,52.23
2018-03-03T11:21:00.576Z,52.10
2018-03-03T11:23:30.443Z,53.47
2018-03-03T11:26:00.309Z,53.50
2018-03-03T11:28:30.212Z,56.00
2018-03-03T11:31:00.061Z,50.60
2018-03-03T11:33:29.969Z,53.33
2018-03-03T11:35:59.820Z,56.50
2018-03-03T11:38:29.703Z,58.00
2018-03-03T11:41:00.226Z,55.13
2018-03-03T11:43:30.113Z,58.43
2018-03-03T11:46:00.025Z,56.80
2018-03-03T11:48:29.935Z,59.87
2018-03-03T11:50:59.823Z,54.73
2018-03-03T11:53:29.817Z,51.80
2018-03-03T11:55:59.696Z,48.83
2018-03-03T11:58:29.596Z,58.63
2018-03-03T12:00:59.512Z,53.77
2018-03-03T12:03:29.376Z,54.70
2018-03-03T12:05:59.260Z,53.77
2018-03-03T12:08:29.124Z,56.53
2018-03-03T12:10:59.031Z,51.57
2018-03-03T12:13:28.911Z,54.60
2018-03-03T12:15:58.788Z,54.50
2018-03-03T12:18:28.659Z,55.43
2018-03-03T12:20:58.556Z,53.53
2018-03-03T12:23:28.456Z,50.53
2018-03-03T12:25:58.352Z,51.90
2018-03-03T12:28:28.224Z,54.70
2018-03-03T12:30:58.083Z,51.27
2018-03-03T12:33:27.972Z,47.70
2018-03-03T12:35:57.848Z,51.83
2018-03-03T12:38:27.752Z,54.40
2018-03-03T12:40:57.657Z,48.73
2018-03-03T12:43:27.499Z,48.87
2018-03-03T12:45:57.368Z,52.27
2018-03-03T12:48:27.256Z,52.33
2018-03-03T12:50:57.151Z,52.37
2018-03-03T12:53:27.017Z,51.73
2018-03-03T12:55:56.940Z,51.10
2018-03-03T12:58:27.274Z,47.67
2018-03-03T13:00:57.182Z,51.40
2018-03-03T13:03:27.517Z,48.23
2018-03-03T13:05:57.440Z,48.67
2018-03-03T13:08:27.311Z,47.10
2018-03-03T13:10:57.216Z,49.07
2018-03-03T13:13:27.128Z,50.03
2018-03-03T13:15:57.036Z,47.57
2018-03-03T13:18:26.911Z,49.93
2018-03-03T13:20:56.798Z,41.40
2018-03-03T13:23:26.677Z,46.63
2018-03-03T13:25:56.588Z,46.70
2018-03-03T13:28:26.439Z,45.40
2018-03-03T13:30:56.340Z,50.30
2018-03-03T13:33:26.193Z,48.87
2018-03-03T13:35:56.084Z,42.50
2018-03-03T13:38:25.993Z,43.43
2018-03-03T13:40:55.925Z,42.60
2018-03-03T13:43:25.781Z,43.77
2018-03-03T13:45:55.710Z,39.93
2018-03-03T13:48:25.732Z,41.27
2018-03-03T13:50:55.607Z,43.07
2018-03-03T13:53:25.551Z,42.97
2018-03-03T13:55:55.384Z,37.97
2018-03-03T13:58:25.289Z,39.47
2018-03-03T14:00:55.181Z,39.93
2018-03-03T14:03:25.054Z,38.70
2018-03-03T14:05:54.941Z,36.60
2018-03-03T14:08:24.823Z,38.00
2018-03-03T14:10:54.708Z,39.93
2018-03-03T14:13:24.588Z,40.87
2018-03-03T14:15:54.468Z,44.77
2018-03-03T14:18:24.386Z,41.57
2018-03-03T14:20:54.236Z,41.57
2018-03-03T14:23:24.166Z,41.10
2018-03-03T14:25:54.023Z,40.53
2018-03-03T14:28:24.319Z,39.67
2018-03-03T14:30:54.532Z,40.30
2018-03-03T14:33:24.450Z,36.37
2018-03-03T14:35:54.331Z,36.57
2018-03-03T14:38:24.236Z,39.27
2018-03-03T14:40:54.123Z,41.20
2018-03-03T14:43:24.043Z,40.33
2018-03-03T14:45:54.053Z,38.97
2018-03-03T14:48:23.972Z,34.93
2018-03-03T14:50:53.916Z,35.20
2018-03-03T14:53:23.833Z,34.77
2018-03-03T14:55:53.720Z,33.70
2018-03-03T14:58:23.604Z,38.53
2018-03-03T15:00:53.512Z,35.00
2018-03-03T15:03:23.360Z,37.70
2018-03-03T15:05:53.444Z,35.10
2018-03-03T15:08:23.332Z,36.43
2018-03-03T15:10:53.239Z,38.80
2018-03-03T15:13:23.148Z,38.93
2018-03-03T15:15:53.042Z,34.43
2018-03-03T15:18:22.947Z,34.20
2018-03-03T15:20:52.961Z,34.00
2018-03-03T15:23:22.858Z,31.67
2018-03-03T15:25:53.006Z,37.60
2018-03-03T15:28:22.974Z,36.93
2018-03-03T15:30:52.920Z,36.87
2018-03-03T15:33:22.840Z,39.77
2018-03-03T15:35:52.733Z,38.63
2018-03-03T15:38:23.020Z,40.90
2018-03-03T15:40:52.872Z,38.30
2018-03-03T15:43:22.777Z,33.43
2018-03-03T15:45:52.655Z,38.87
2018-03-03T15:48:22.568Z,33.80
2018-03-03T15:50:52.420Z,34.87
2018-03-03T15:53:22.288Z,34.93
2018-03-03T15:55:52.163Z,37.40
2018-03-03T15:58:22.115Z,35.80
2018-03-03T16:00:52.120Z,31.73
2018-03-03T16:03:22.030Z,33.30
2018-03-03T16:05:51.912Z,32.50
2018-03-03T16:08:21.841Z,31.97
2018-03-03T16:10:51.703Z,36.50
2018-03-03T16:13:21.628Z,37.33
2018-03-03T16:15:51.512Z,36.43
2018-03-03T16:18:21.432Z,32.50
2018-03-03T16:20:51.313Z,34.13
2018-03-03T16:23:21.261Z,33.17
2018-03-03T16:25:51.144Z,34.37
2018-03-03T16:28:21.029Z,33.77
2018-03-03T16:30:50.952Z,36.37
2018-03-03T16:33:20.833Z,37.60
2018-03-03T16:35:50.714Z,36.17
2018-03-03T16:38:20.673Z,31.73
2018-03-03T16:40:50.660Z,35.97
2018-03-03T16:43:20.554Z,33.63
2018-03-03T16:45:50.416Z,32.77
2018-03-03T16:48:20.311Z,34.47
2018-03-03T16:50:50.185Z,34.93
2018-03-03T16:53:20.084Z,35.97
2018-03-03T16:55:49.957Z,35.83
2018-03-03T16:58:19.808Z,38.90
2018-03-03T17:00:49.692Z,33.10
2018-03-03T17:03:19.759Z,34.93
2018-03-03T17:05:49.652Z,32.17
2018-03-03T17:08:19.636Z,35.30
2018-03-03T17:10:49.505Z,35.23
2018-03-03T17:13:19.467Z,35.43
2018-03-03T17:15:49.375Z,37.30
2018-03-03T17:18:19.228Z,36.37
2018-03-03T17:20:49.456Z,37.23
2018-03-03T17:23:19.370Z,36.40
2018-03-03T17:25:49.282Z,35.50
2018-03-03T17:28:19.156Z,34.73
2018-03-03T17:30:49.184Z,38.13
2018-03-03T17:33:19.051Z,35.63
2018-03-03T17:35:48.941Z,34.73
2018-03-03T17:38:18.852Z,32.70
2018-03-03T17:40:48.748Z,38.23
2018-03-03T17:43:18.640Z,31.70
2018-03-03T17:45:48.564Z,35.80
2018-03-03T17:48:18.483Z,34.57
2018-03-03T17:50:48.380Z,35.40
2018-03-03T17:53:18.288Z,36.40
2018-03-03T17:55:48.175Z,34.90
2018-03-03T17:58:18.096Z,35.70
2018-03-03T18:00:48.704Z,36.90
2018-03-03T18:03:18.624Z,31.77
2018-03-03T18:05:48.536Z,34.83
2018-03-03T18:08:18.409Z,33.63
2018-03-03T18:10:48.284Z,35.23
2018-03-03T18:13:33.797Z,33.17
2018-03-03T18:16:03.639Z,34.30
2018-03-03T18:18:33.544Z,40.27
2018-03-03T18:21:03.446Z,35.03
2018-03-03T18:23:33.352Z,39.57
2018-03-03T18:26:03.232Z,34.30
2018-03-03T18:28:33.103Z,33.97
2018-03-03T18:31:02.961Z,36.23
2018-03-03T18:33:33.296Z,33.20
2018-03-03T18:36:03.136Z,35.63
2018-03-03T18:38:33.032Z,42.67
2018-03-03T18:41:02.902Z,37.23
2018-03-03T18:43:32.748Z,38.20
2018-03-03T18:46:02.670Z,39.93
2018-03-03T18:48:32.532Z,35.07
2018-03-03T18:51:02.458Z,34.13
2018-03-03T18:53:32.306Z,33.53
2018-03-03T18:56:02.257Z,34.83
2018-03-03T18:58:32.248Z,36.87
2018-03-03T19:01:02.107Z,36.97
2018-03-03T19:03:32.003Z,37.93
2018-03-03T19:06:01.860Z,33.70
2018-03-03T19:08:30.956Z,38.63
2018-03-03T19:10:59.302Z,42.37
2018-03-03T19:13:28.469Z,38.20
2018-03-03T19:15:56.901Z,37.63
2018-03-03T19:18:26.005Z,39.27
2018-03-03T19:20:54.402Z,38.57
2018-03-03T19:23:22.891Z,39.80
2018-03-03T19:25:51.284Z,40.53
2018-03-03T19:28:19.682Z,40.73
2018-03-03T19:30:48.834Z,39.00
2018-03-03T19:33:18.125Z,34.67
2018-03-03T19:35:46.513Z,37.03
2018-03-03T19:38:14.871Z,37.73
2018-03-03T19:40:43.978Z,37.53
2018-03-03T19:43:12.414Z,35.83
2018-03-03T19:45:40.788Z,34.80
2018-03-03T19:48:09.910Z,35.20
2018-03-03T19:50:39.023Z,35.23
2018-03-03T19:53:07.371Z,35.67
2018-03-03T19:55:36.473Z,32.93
2018-03-03T19:58:05.619Z,33.90
2018-03-03T20:00:33.985Z,31.40
2018-03-03T20:03:02.337Z,36.23
2018-03-03T20:05:30.770Z,34.20
2018-03-03T20:07:59.945Z,34.07
2018-03-03T20:10:29.093Z,32.50
2018-03-03T20:12:57.481Z,39.10
2018-03-03T20:15:25.897Z,33.93
2018-03-03T20:17:54.253Z,34.13
2018-03-03T20:20:22.616Z,35.03
2018-03-03T20:22:50.974Z,38.70
2018-03-03T20:25:19.365Z,34.47
2018-03-03T20:27:48.464Z,33.17
2018-03-03T20:30:16.858Z,34.60
2018-03-03T20:32:45.326Z,39.60
2018-03-03T20:35:13.729Z,34.23
2018-03-03T20:37:42.206Z,39.90
2018-03-03T20:40:11.489Z,34.67
2018-03-03T20:42:39.871Z,39.63
2018-03-03T20:45:08.255Z,38.40
2018-03-03T20:47:36.642Z,34.83
2018-03-03T20:50:05.225Z,34.80
2018-03-03T20:52:33.587Z,33.20
2018-03-03T20:55:02.273Z,35.17
2018-03-03T20:57:30.671Z,33.47
2018-03-03T20:59:59.022Z,36.63
2018-03-03T21:02:27.399Z,38.53
2018-03-03T21:04:55.805Z,33.97
2018-03-03T21:07:24.186Z,32.87
2018-03-03T21:09:52.537Z,34.47
2018-03-03T21:12:21.669Z,33.60
2018-03-03T21:14:50.021Z,33.23
2018-03-03T21:17:18.425Z,32.70
2018-03-03T21:19:46.784Z,35.67
2018-03-03T21:22:15.229Z,35.67
2018-03-03T21:24:43.603Z,38.40
2018-03-03T21:27:12.312Z,31.30
2018-03-03T21:29:40.657Z,37.80
2018-03-03T21:32:09.793Z,36.80
2018-03-03T21:34:38.126Z,35.80
2018-03-03T21:37:07.266Z,35.07
2018-03-03T21:39:35.650Z,33.80
2018-03-03T21:42:04.000Z,31.67
2018-03-03T21:44:32.881Z,35.93
2018-03-03T21:47:01.273Z,34.40
2018-03-03T21:49:29.637Z,36.53
2018-03-03T21:51:58.818Z,35.73
2018-03-03T21:54:27.965Z,38.00
2018-03-03T21:56:56.318Z,35.90
2018-03-03T21:59:25.453Z,37.07
2018-03-03T22:01:53.801Z,37.43
2018-03-03T22:04:22.127Z,38.57
2018-03-03T22:06:50.497Z,37.93
2018-03-03T22:09:19.632Z,37.17
2018-03-03T22:11:48.738Z,43.67
2018-03-03T22:14:17.139Z,39.47
2018-03-03T22:16:45.491Z,39.67
2018-03-03T22:19:13.849Z,37.23
2018-03-03T22:21:42.211Z,39.33
2018-03-03T22:24:10.564Z,37.27
2018-03-03T22:26:38.901Z,40.60
2018-03-03T22:29:08.049Z,39.63
2018-03-03T22:36:45.514Z,40.07
2018-03-03T22:39:14.636Z,41.33
2018-03-03T22:41:43.843Z,40.57
2018-03-03T22:44:12.470Z,38.27
2018-03-03T22:46:40.928Z,39.03
2018-03-03T22:49:09.280Z,37.53
2018-03-03T22:51:37.628Z,38.50
2018-03-03T22:54:06.017Z,42.00
2018-03-03T22:56:35.108Z,43.03
2018-03-03T22:59:03.471Z,42.43
2018-03-03T23:01:32.635Z,40.17
2018-03-03T23:04:00.999Z,40.03
2018-03-03T23:06:29.380Z,43.50
2018-03-03T23:08:57.948Z,37.57
2018-03-03T23:11:26.274Z,38.30
2018-03-03T23:13:55.409Z,46.83
2018-03-03T23:16:23.759Z,40.97
2018-03-03T23:18:52.106Z,39.27
2018-03-03T23:21:20.477Z,36.37
2018-03-03T23:23:48.828Z,39.00
2018-03-03T23:26:17.201Z,39.10
2018-03-03T23:28:45.603Z,36.30
2018-03-03T23:31:13.981Z,42.00
2018-03-03T23:33:42.376Z,36.90
2018-03-03T23:36:11.525Z,38.23
2018-03-03T23:38:39.862Z,36.87
2018-03-03T23:41:08.214Z,40.10
2018-03-03T23:43:36.572Z,37.63
2018-03-03T23:46:04.917Z,36.30
2018-03-03T23:48:34.053Z,42.20
2018-03-03T23:51:02.392Z,41.70
2018-03-03T23:53:31.502Z,43.63
2018-03-03T23:55:59.859Z,38.10
2018-03-03T23:58:28.968Z,41.23
